Time;durP1;ratioP1;P1;durP2;ratioP2;P2;SDS_P1;SDS_P2;PMS_P1;PMS_P2;Temp;Humidity;BMP_temperature;BMP_pressure;BME280_temperature;BME280_humidity;BME280_pressure;Samples;Min_cycle;Max_cycle;Signal;HPM_P1;HPM_P2
2022/11/08 00:01:39;;;;;;;2.92;2.58;;;4.50;99.90;;;;;;5073280;28;20074;-69
2022/11/08 00:04:16;;;;;;;0.73;0.73;;;4.70;99.90;;;;;;5072760;28;20773;-72
2022/11/08 00:14:57;;;;;;;1.00;1.00;;;4.50;99.90;;;;;;5072730;28;20486;-70
2022/11/08 00:17:25;;;;;;;1.42;1.38;;;4.20;99.90;;;;;;5072578;28;20109;-70
2022/11/08 00:19:51;;;;;;;1.35;1.30;;;4.00;99.90;;;;;;5073597;28;20028;-69
2022/11/08 00:22:18;;;;;;;1.02;1.00;;;4.30;99.90;;;;;;5054650;28;20418;-69
2022/11/08 00:24:44;;;;;;;1.05;1.05;;;4.10;99.90;;;;;;5072712;28;20383;-70
2022/11/08 00:27:12;;;;;;;2.07;1.97;;;4.30;99.90;;;;;;5083678;28;20032;-71
2022/11/08 00:29:38;;;;;;;1.95;1.85;;;5.00;99.90;;;;;;5092759;28;20020;-70
2022/11/08 00:32:05;;;;;;;1.97;1.87;;;4.30;99.90;;;;;;5092606;28;20039;-71
2022/11/08 00:34:32;;;;;;;1.73;1.63;;;4.50;99.90;;;;;;5092292;28;20062;-71
2022/11/08 00:36:58;;;;;;;0.75;0.75;;;4.30;99.90;;;;;;5054230;28;20396;-69
2022/11/08 00:39:24;;;;;;;2.60;2.40;;;4.20;99.90;;;;;;5054321;28;20025;-69
2022/11/08 00:41:49;;;;;;;1.93;1.80;;;4.00;99.90;;;;;;5078515;28;20020;-70
2022/11/08 00:44:15;;;;;;;0.73;0.73;;;4.40;99.90;;;;;;5092646;28;20028;-70
2022/11/08 00:46:41;;;;;;;1.23;1.23;;;;;;;;;;5092378;28;20070;-71
2022/11/08 00:49:07;;;;;;;1.20;1.20;;;4.50;99.90;;;;;;5074469;28;20490;-70
2022/11/08 00:51:33;;;;;;;1.48;1.40;;;4.10;99.90;;;;;;5077361;28;20484;-70
2022/11/08 00:53:59;;;;;;;2.25;2.15;;;4.40;99.90;;;;;;5071808;28;20356;-69
2022/11/08 00:56:24;;;;;;;0.37;0.37;;;4.30;99.90;;;;;;5072665;28;20055;-69
2022/11/08 00:58:50;;;;;;;0.80;0.80;;;4.20;99.90;;;;;;5071045;28;20024;-71
2022/11/08 01:01:19;;;;;;;0.93;0.93;;;4.30;99.90;;;;;;5092552;28;20036;-69
2022/11/08 01:03:45;;;;;;;1.95;1.33;;;4.30;99.90;;;;;;5091981;28;20055;-70
2022/11/08 01:06:12;;;;;;;1.20;1.20;;;4.00;99.90;;;;;;5082559;28;20107;-70
2022/11/08 01:08:38;;;;;;;2.47;2.28;;;4.30;99.90;;;;;;5053512;28;20036;-70
2022/11/08 01:11:07;;;;;;;0.98;0.98;;;4.30;99.90;;;;;;5072021;28;20078;-69
2022/11/08 01:13:33;;;;;;;0.77;0.77;;;3.90;99.90;;;;;;5087981;28;20044;-71
2022/11/08 01:16:09;;;;;;;0.73;0.73;;;4.20;99.90;;;;;;5073510;28;20030;-70
2022/11/08 01:18:34;;;;;;;3.38;3.17;;;4.10;99.90;;;;;;5091744;28;20029;-71
2022/11/08 01:21:01;;;;;;;0.87;0.87;;;4.10;99.90;;;;;;5085761;28;20024;-71
2022/11/08 01:23:27;;;;;;;0.88;0.88;;;;;;;;;;5071005;28;20598;-71
2022/11/08 01:25:53;;;;;;;3.30;3.05;;;4.10;99.90;;;;;;5072406;28;20457;-70
2022/11/08 01:28:18;;;;;;;1.07;1.07;;;4.00;99.90;;;;;;5065755;28;20089;-69
2022/11/08 01:30:44;;;;;;;2.10;2.00;;;4.00;99.90;;;;;;5091472;28;20059;-69
2022/11/08 01:33:11;;;;;;;0.73;0.73;;;4.20;99.90;;;;;;5082540;28;20180;-70
2022/11/08 01:35:37;;;;;;;0.63;0.60;;;;;;;;;;5071396;28;20089;-70
2022/11/08 01:38:04;;;;;;;1.17;1.17;;;4.30;99.90;;;;;;5071123;28;20108;-71
2022/11/08 01:40:30;;;;;;;;;;;4.20;99.90;;;;;;5071390;28;20472;-70
2022/11/08 01:42:56;;;;;;;0.95;0.95;;;4.10;99.90;;;;;;5078278;28;20592;-70
2022/11/08 01:45:59;;;;;;;0.90;0.90;;;4.10;99.90;;;;;;5091196;28;20031;-70
2022/11/08 01:48:28;;;;;;;0.82;0.82;;;4.10;99.90;;;;;;5091476;28;20059;-71
2022/11/08 01:50:57;;;;;;;1.25;1.17;;;4.10;99.90;;;;;;5090870;28;20035;-72
2022/11/08 01:53:24;;;;;;;1.05;1.05;;;4.30;99.90;;;;;;5091375;28;20234;-71
2022/11/08 01:55:50;;;;;;;0.90;0.90;;;4.00;99.90;;;;;;5090857;28;20060;-70
2022/11/08 01:58:22;;;;;;;1.33;1.27;;;3.90;99.90;;;;;;5089512;28;20058;-69
2022/11/08 02:00:48;;;;;;;1.15;1.15;;;4.80;99.90;;;;;;5090310;28;20393;-70
2022/11/08 02:03:18;;;;;;;0.73;0.73;;;4.10;99.90;;;;;;5073125;28;20029;-71
2022/11/08 02:05:44;;;;;;;2.38;2.08;;;;;;;;;;5052657;28;20040;-72
2022/11/08 02:08:16;;;;;;;1.92;1.83;;;3.90;99.90;;;;;;5070827;28;20028;-71
2022/11/08 02:10:45;;;;;;;0.88;0.88;;;4.00;99.90;;;;;;5070311;28;20039;-69
2022/11/08 02:13:15;;;;;;;1.13;1.00;;;4.00;99.90;;;;;;5064578;28;20035;-70
2022/11/08 02:15:41;;;;;;;2.20;2.00;;;4.40;99.90;;;;;;5050861;28;20507;-70
2022/11/08 02:18:08;;;;;;;1.20;1.20;;;;;;;;;;5050381;28;20143;-71
2022/11/08 02:20:34;;;;;;;1.88;1.10;;;4.30;99.90;;;;;;5036383;28;20480;-70
2022/11/08 02:23:26;;;;;;;2.03;1.85;;;4.10;99.90;;;;;;5052564;28;20129;-68
2022/11/08 02:25:52;;;;;;;3.60;1.25;;;3.90;99.90;;;;;;5052340;28;20029;-69
2022/11/08 02:28:18;;;;;;;1.58;1.50;;;4.20;99.90;;;;;;5052010;28;20032;-70
2022/11/08 02:30:43;;;;;;;0.80;0.80;;;3.90;99.90;;;;;;5070045;28;20048;-69
2022/11/08 02:33:16;;;;;;;0.60;0.60;;;4.30;99.90;;;;;;5085377;28;20050;-71
2022/11/08 02:35:45;;;;;;;0.52;0.52;;;4.60;99.90;;;;;;5071848;28;20494;-71
2022/11/08 02:38:11;;;;;;;1.70;1.60;;;4.70;99.90;;;;;;5090702;28;20036;-69
2022/11/08 02:40:47;;;;;;;2.03;1.93;;;4.70;99.90;;;;;;5090582;28;20432;-70
2022/11/08 02:43:12;;;;;;;2.30;2.20;;;4.00;99.90;;;;;;5078323;28;20740;-71
2022/11/08 02:45:39;;;;;;;1.03;1.03;;;;;;;;;;5052105;28;20082;-71
2022/11/08 02:48:05;;;;;;;2.17;2.05;;;4.50;99.90;;;;;;5053338;28;20544;-70
2022/11/08 02:50:31;;;;;;;3.83;1.50;;;4.30;99.90;;;;;;5070150;28;20119;-70
2022/11/08 02:52:56;;;;;;;0.93;0.93;;;4.40;99.90;;;;;;5057577;28;20118;-71
2022/11/08 02:55:22;;;;;;;0.87;0.87;;;4.90;99.90;;;;;;5090137;28;20035;-69
2022/11/08 02:57:47;;;;;;;0.80;0.80;;;4.50;99.90;;;;;;5089756;28;20107;-71
2022/11/08 03:00:13;;;;;;;1.83;1.67;;;4.20;99.90;;;;;;5090190;28;20511;-70
2022/11/08 03:02:39;;;;;;;2.37;1.53;;;4.30;99.90;;;;;;5090058;28;20111;-71
2022/11/08 03:05:05;;;;;;;1.47;1.37;;;4.70;99.90;;;;;;5087697;28;20303;-70
2022/11/08 03:07:31;;;;;;;1.52;1.42;;;4.60;99.90;;;;;;5090239;28;20028;-69
2022/11/08 03:09:56;;;;;;;0.73;0.73;;;;;;;;;;5090194;28;20510;-70
2022/11/08 03:12:22;;;;;;;0.43;0.43;;;4.40;99.90;;;;;;5082210;28;20126;-71
2022/11/08 03:14:48;;;;;;;0.50;0.50;;;;;;;;;;5070093;28;20289;-69
2022/11/08 03:17:14;;;;;;;0.70;0.70;;;4.90;99.90;;;;;;5069960;28;20432;-71
2022/11/08 03:19:39;;;;;;;0.60;0.60;;;4.30;99.90;;;;;;5051888;28;20060;-69
2022/11/08 03:22:05;;;;;;;2.93;1.30;;;4.40;99.90;;;;;;5071690;28;20044;-71
2022/11/08 03:24:30;;;;;;;0.40;0.40;;;4.00;99.90;;;;;;5093798;28;20035;-69
2022/11/08 03:26:56;;;;;;;0.73;0.73;;;4.20;99.90;;;;;;5073072;28;20024;-70
2022/11/08 03:29:21;;;;;;;1.60;1.50;;;4.30;99.90;;;;;;5073293;28;20025;-69
2022/11/08 03:31:47;;;;;;;1.50;1.43;;;4.40;99.90;;;;;;5073445;28;20040;-70
2022/11/08 03:34:13;;;;;;;0.40;0.40;;;4.10;99.90;;;;;;5090085;28;20069;-70
2022/11/08 03:36:38;;;;;;;0.50;0.50;;;4.30;99.90;;;;;;5093736;28;20032;-70
2022/11/08 03:39:04;;;;;;;0.73;0.73;;;4.50;99.90;;;;;;5093989;28;20028;-70
2022/11/08 03:41:30;;;;;;;0.50;0.50;;;;;;;;;;5089110;28;20056;-70
2022/11/08 03:43:56;;;;;;;0.50;0.50;;;;;;;;;;5073627;28;20094;-70
2022/11/08 03:46:21;;;;;;;0.82;0.82;;;4.40;99.90;;;;;;5073283;28;20044;-70
2022/11/08 03:48:47;;;;;;;0.70;0.70;;;4.30;99.90;;;;;;5073519;28;20116;-71
2022/11/08 03:51:12;;;;;;;0.60;0.60;;;5.30;99.90;;;;;;5072988;28;20119;-69
2022/11/08 03:53:38;;;;;;;0.60;0.60;;;4.50;99.90;;;;;;5090797;28;20103;-70
2022/11/08 03:56:04;;;;;;;0.50;0.50;;;4.30;99.90;;;;;;5093350;28;20032;-71
2022/11/08 03:58:29;;;;;;;0.60;0.60;;;4.70;99.90;;;;;;5091920;28;20054;-71
2022/11/08 04:00:57;;;;;;;1.83;1.73;;;4.50;99.90;;;;;;5093565;28;20028;-70
2022/11/08 04:03:23;;;;;;;1.88;1.77;;;4.70;99.90;;;;;;5063540;28;20430;-71
2022/11/08 04:05:48;;;;;;;1.48;1.38;;;4.50;99.90;;;;;;5092986;28;20036;-70
2022/11/08 04:08:14;;;;;;;1.10;1.10;;;4.70;99.90;;;;;;5093573;28;20138;-70
2022/11/08 04:10:39;;;;;;;0.40;0.40;;;4.20;99.90;;;;;;5091826;28;20120;-71
2022/11/08 04:15:53;;;;;;;1.50;1.40;;;4.40;99.90;;;;;;5072907;28;20502;-68
2022/11/08 04:21:18;;;;;;;0.60;0.60;;;4.60;99.90;;;;;;5073761;28;20044;-71
2022/11/08 04:23:45;;;;;;;0.75;0.75;;;4.30;99.90;;;;;;5086854;28;20387;-71
2022/11/08 04:26:10;;;;;;;2.03;1.40;;;4.20;99.90;;;;;;5057627;28;20414;-71
2022/11/08 04:28:38;;;;;;;0.50;0.50;;;4.70;99.90;;;;;;5093013;28;20036;-72
2022/11/08 04:31:09;;;;;;;0.68;0.65;;;4.80;99.90;;;;;;5074356;28;20514;-70
2022/11/08 04:33:35;;;;;;;1.60;1.52;;;4.70;99.90;;;;;;5090644;28;20061;-71
2022/11/08 04:36:03;;;;;;;1.50;1.42;;;4.60;99.90;;;;;;5074363;28;20081;-70
2022/11/08 04:38:30;;;;;;;0.57;0.57;;;4.10;99.90;;;;;;5092360;28;20024;-70
2022/11/08 04:41:04;;;;;;;0.55;0.55;;;4.20;99.90;;;;;;5067098;28;20496;-68
2022/11/08 04:43:30;;;;;;;1.05;0.98;;;4.70;99.90;;;;;;5054366;28;20396;-69
2022/11/08 04:46:01;;;;;;;0.40;0.40;;;4.20;99.90;;;;;;5072398;28;20028;-71
2022/11/08 04:48:26;;;;;;;5.57;1.60;;;4.40;99.90;;;;;;5072593;28;20066;-69
2022/11/08 04:50:52;;;;;;;0.77;0.77;;;4.30;99.90;;;;;;5056645;28;20035;-70
2022/11/08 04:53:17;;;;;;;1.80;1.70;;;4.40;99.90;;;;;;5092049;28;20075;-70
2022/11/08 04:55:43;;;;;;;0.40;0.40;;;4.40;99.90;;;;;;5090342;28;20161;-70
2022/11/08 04:58:08;;;;;;;2.37;2.20;;;3.90;99.90;;;;;;5092221;28;20070;-72
2022/11/08 05:00:34;;;;;;;1.03;1.03;;;;;;;;;;5092060;28;20028;-69
2022/11/08 05:03:03;;;;;;;0.80;0.80;;;4.50;99.90;;;;;;5071947;28;20050;-70
2022/11/08 05:05:28;;;;;;;1.15;1.15;;;4.40;99.90;;;;;;5091665;28;20078;-71
2022/11/08 05:07:54;;;;;;;2.20;1.67;;;4.30;99.90;;;;;;5074013;28;20028;-72
2022/11/08 05:10:19;;;;;;;0.97;0.97;;;4.40;99.90;;;;;;5073171;28;20499;-71
2022/11/08 05:12:45;;;;;;;1.70;1.30;;;4.50;99.90;;;;;;5092217;28;20099;-70
2022/11/08 05:15:11;;;;;;;2.10;2.00;;;4.20;99.90;;;;;;5091867;28;20090;-70
2022/11/08 05:17:37;;;;;;;2.17;1.70;;;;;;;;;;5092313;28;20020;-70
2022/11/08 05:25:37;;;;;;;1.40;1.35;;;4.10;99.90;;;;;;5062437;28;20031;-71
2022/11/08 05:28:03;;;;;;;1.55;1.45;;;4.40;99.90;;;;;;5091930;28;20573;-70
2022/11/08 05:30:28;;;;;;;0.90;0.90;;;4.20;99.90;;;;;;5090757;28;20052;-69
2022/11/08 05:32:54;;;;;;;1.37;1.33;;;4.10;99.90;;;;;;5071617;28;20032;-71
2022/11/08 05:35:21;;;;;;;0.90;0.90;;;4.20;99.90;;;;;;5071251;28;20024;-70
2022/11/08 05:37:47;;;;;;;0.88;0.85;;;4.80;99.90;;;;;;5053339;28;20391;-70
2022/11/08 05:40:13;;;;;;;0.50;0.50;;;4.30;99.90;;;;;;5079756;28;20043;-70
2022/11/08 05:42:38;;;;;;;0.43;0.43;;;4.40;99.90;;;;;;5091565;28;20028;-70
2022/11/08 05:45:04;;;;;;;2.90;2.73;;;4.50;99.90;;;;;;5090589;28;20036;-70
2022/11/08 05:47:30;;;;;;;1.45;1.40;;;4.40;99.90;;;;;;5073023;28;20036;-72
2022/11/08 05:49:56;;;;;;;0.50;0.50;;;4.50;99.90;;;;;;5087428;28;20036;-71
2022/11/08 05:52:21;;;;;;;2.57;2.37;;;4.50;99.90;;;;;;5052901;28;20213;-72
2022/11/08 05:54:47;;;;;;;1.03;1.03;;;4.80;99.90;;;;;;5073812;28;20263;-71
2022/11/08 05:57:12;;;;;;;0.57;0.57;;;4.50;99.90;;;;;;5072915;28;20127;-69
2022/11/08 05:59:38;;;;;;;0.93;0.93;;;4.70;99.90;;;;;;5072934;28;20123;-69
2022/11/08 06:02:04;;;;;;;1.57;1.47;;;4.50;99.90;;;;;;5054771;28;20032;-69
2022/11/08 06:04:29;;;;;;;1.07;1.07;;;4.80;99.90;;;;;;5070808;28;20036;-69
2022/11/08 06:06:55;;;;;;;2.10;2.00;;;4.30;99.90;;;;;;5071029;28;20037;-71
2022/11/08 06:09:20;;;;;;;1.47;1.37;;;4.40;99.90;;;;;;5058220;28;20064;-70
2022/11/08 06:11:46;;;;;;;0.43;0.43;;;4.20;99.90;;;;;;5090644;28;20028;-69
2022/11/08 06:14:12;;;;;;;0.77;0.77;;;4.50;99.90;;;;;;5091213;28;20391;-69
2022/11/08 06:16:37;;;;;;;1.03;1.03;;;4.60;99.90;;;;;;5090724;28;20166;-70
2022/11/08 06:19:03;;;;;;;1.00;1.00;;;4.70;99.90;;;;;;5090728;28;20043;-70
2022/11/08 06:21:28;;;;;;;0.93;0.93;;;4.70;99.90;;;;;;5086218;28;20020;-70
2022/11/08 06:23:54;;;;;;;0.83;0.83;;;4.50;99.90;;;;;;5070942;28;20036;-70
2022/11/08 06:26:21;;;;;;;0.67;0.67;;;4.60;99.90;;;;;;5090549;28;20495;-72
2022/11/08 06:28:47;;;;;;;0.50;0.50;;;4.70;99.90;;;;;;5072647;28;20024;-69
2022/11/08 06:31:12;;;;;;;4.30;2.43;;;4.70;99.90;;;;;;5076340;28;20143;-70
2022/11/08 06:33:38;;;;;;;0.50;0.50;;;4.80;99.90;;;;;;5070730;28;20024;-70
2022/11/08 06:36:05;;;;;;;0.67;0.67;;;5.30;99.90;;;;;;5070091;28;20035;-69
2022/11/08 06:38:31;;;;;;;3.88;2.25;;;4.60;99.90;;;;;;5072174;28;20033;-71
2022/11/08 06:41:01;;;;;;;0.60;0.60;;;5.10;99.90;;;;;;5084419;28;20380;-70
2022/11/08 06:43:26;;;;;;;0.30;0.30;;;4.60;99.90;;;;;;5070656;28;20020;-69
2022/11/08 06:45:52;;;;;;;1.43;1.33;;;4.90;99.90;;;;;;5069966;28;20028;-70
2022/11/08 06:48:17;;;;;;;2.10;2.00;;;4.80;99.90;;;;;;5070483;28;20028;-71
2022/11/08 06:50:43;;;;;;;3.23;2.97;;;5.00;99.90;;;;;;5084205;28;20377;-71
2022/11/08 06:53:11;;;;;;;3.30;2.20;;;4.30;99.90;;;;;;5090883;28;20024;-71
2022/11/08 06:55:36;;;;;;;0.57;0.57;;;5.50;99.90;;;;;;5075301;28;20249;-69
2022/11/08 06:58:03;;;;;;;2.23;2.07;;;4.90;99.90;;;;;;5092537;28;20426;-70
2022/11/08 07:00:29;;;;;;;1.30;1.30;;;4.70;99.90;;;;;;5076594;28;20487;-69
2022/11/08 07:02:58;;;;;;;2.10;1.95;;;5.60;99.90;;;;;;5088968;28;20029;-69
2022/11/08 07:05:25;;;;;;;1.65;1.17;;;4.70;99.90;;;;;;5056129;28;20064;-70
2022/11/08 07:07:51;;;;;;;1.38;1.30;;;4.90;99.90;;;;;;5074499;28;20368;-70
2022/11/08 07:10:18;;;;;;;0.87;0.87;;;5.10;99.90;;;;;;5068157;28;20078;-70
2022/11/08 07:12:44;;;;;;;1.85;1.15;;;5.10;99.90;;;;;;5094462;28;20314;-71
2022/11/08 07:15:10;;;;;;;2.13;1.92;;;4.90;99.90;;;;;;5092408;28;20067;-71
2022/11/08 07:17:36;;;;;;;2.47;2.20;;;5.20;99.90;;;;;;5093871;28;20431;-69
2022/11/08 07:20:02;;;;;;;2.23;2.13;;;4.90;99.90;;;;;;5094128;28;20103;-70
2022/11/08 07:22:27;;;;;;;2.80;2.63;;;5.00;99.90;;;;;;5093824;28;20028;-70
2022/11/08 07:24:53;;;;;;;0.70;0.70;;;5.20;99.90;;;;;;5086296;28;20036;-70
2022/11/08 07:27:18;;;;;;;0.97;0.97;;;4.80;99.90;;;;;;5057318;28;20046;-70
2022/11/08 07:29:44;;;;;;;1.53;1.43;;;5.20;99.90;;;;;;5073638;28;20499;-70
2022/11/08 07:32:09;;;;;;;1.80;1.70;;;5.10;99.90;;;;;;5081598;28;20037;-72
2022/11/08 07:34:35;;;;;;;0.40;0.40;;;5.10;99.90;;;;;;5094000;28;20112;-69
2022/11/08 07:37:00;;;;;;;0.80;0.80;;;4.80;99.90;;;;;;5093810;28;20023;-69
2022/11/08 07:39:26;;;;;;;0.40;0.40;;;5.20;99.90;;;;;;5091814;28;20433;-71
2022/11/08 07:41:52;;;;;;;3.07;1.87;;;;;;;;;;5093364;28;20028;-71
2022/11/08 07:44:18;;;;;;;1.15;1.13;;;4.90;99.90;;;;;;5093550;28;20070;-71
2022/11/08 07:46:43;;;;;;;0.83;0.83;;;5.20;99.90;;;;;;5093582;28;20035;-70
2022/11/08 07:49:09;;;;;;;1.33;1.27;;;5.00;99.90;;;;;;5083765;28;20032;-70
2022/11/08 07:51:37;;;;;;;1.13;1.13;;;5.40;99.90;;;;;;5073081;28;20060;-70
2022/11/08 07:54:02;;;;;;;0.65;0.65;;;5.50;99.90;;;;;;5073392;28;20029;-69
2022/11/08 07:56:30;;;;;;;0.60;0.60;;;5.40;99.90;;;;;;5070938;28;20428;-70
2022/11/08 07:58:56;;;;;;;11.27;2.08;;;5.50;99.90;;;;;;5075143;28;20065;-71
2022/11/08 08:01:22;;;;;;;1.83;1.73;;;5.50;99.90;;;;;;5093114;28;20035;-71
2022/11/08 08:03:47;;;;;;;0.70;0.70;;;5.50;99.90;;;;;;5088796;28;20036;-70
2022/11/08 08:06:13;;;;;;;1.60;1.50;;;5.80;99.90;;;;;;5072684;28;20047;-69
2022/11/08 09:02:24;;;;;;;2.67;2.42;;;6.10;99.90;;;;;;5074644;28;20967;-72
2022/11/08 09:04:50;;;;;;;1.43;1.33;;;;;;;;;;5067508;28;20032;-69
2022/11/08 09:07:16;;;;;;;2.10;2.00;;;6.40;99.90;;;;;;5067226;28;20103;-69
2022/11/08 09:09:42;;;;;;;2.20;2.10;;;;;;;;;;5067280;28;20257;-70
2022/11/08 09:12:07;;;;;;;0.50;0.50;;;6.50;99.90;;;;;;5079985;28;20066;-69
2022/11/08 09:14:33;;;;;;;3.20;2.90;;;6.30;99.90;;;;;;5087680;28;20029;-69
2022/11/08 09:16:59;;;;;;;2.03;1.83;;;6.10;99.90;;;;;;5087362;28;20024;-68
2022/11/08 09:19:24;;;;;;;1.17;1.17;;;6.40;99.90;;;;;;5085905;28;20028;-69
2022/11/08 09:21:50;;;;;;;2.67;2.13;;;6.30;99.90;;;;;;5107266;28;20375;-68
2022/11/08 09:24:16;;;;;;;0.97;0.97;;;6.50;99.90;;;;;;5108229;28;20419;-68
2022/11/08 09:26:41;;;;;;;1.40;1.33;;;5.90;99.90;;;;;;5106096;28;20039;-69
2022/11/08 09:29:07;;;;;;;2.07;1.97;;;6.40;99.90;;;;;;5107262;28;20032;-69
2022/11/08 09:31:32;;;;;;;4.03;2.47;;;6.70;99.90;;;;;;5106098;28;20044;-69
2022/11/08 09:33:58;;;;;;;1.47;1.37;;;6.20;99.90;;;;;;5107403;28;20140;-69
2022/11/08 09:36:23;;;;;;;1.83;1.73;;;6.60;99.90;;;;;;5092986;28;20040;-67
2022/11/08 09:38:49;;;;;;;1.27;1.27;;;6.10;99.90;;;;;;5087190;28;20032;-69
2022/11/08 09:41:17;;;;;;;0.93;0.93;;;6.70;99.90;;;;;;5087217;28;20051;-68
2022/11/08 09:44:08;;;;;;;1.20;1.20;;;6.50;99.90;;;;;;5107693;28;20032;-68
2022/11/08 09:46:40;;;;;;;0.85;0.82;;;6.70;99.90;;;;;;5107617;28;20377;-68
2022/11/08 09:49:14;;;;;;;3.60;2.47;;;6.70;99.90;;;;;;5105641;28;20031;-68
2022/11/08 09:51:40;;;;;;;2.72;2.50;;;6.80;99.90;;;;;;5092665;28;20037;-67
2022/11/08 09:54:11;;;;;;;2.28;2.17;;;6.30;99.90;;;;;;5086739;28;20037;-68
2022/11/08 09:56:37;;;;;;;2.38;2.22;;;7.00;99.90;;;;;;5083451;28;20041;-68
2022/11/08 09:59:17;;;;;;;4.03;2.15;;;7.10;99.90;;;;;;5081327;28;20043;-68
2022/11/08 10:01:42;;;;;;;0.95;0.95;;;6.80;99.90;;;;;;5081916;28;20148;-69
2022/11/08 10:04:18;;;;;;;3.77;3.43;;;7.20;99.90;;;;;;5072686;28;20266;-70
2022/11/08 10:07:02;;;;;;;2.53;2.38;;;7.40;99.90;;;;;;5059262;28;20036;-66
2022/11/08 10:09:54;;;;;;;1.95;1.85;;;9.60;99.90;;;;;;5052122;28;20047;-69
2022/11/08 10:12:24;;;;;;;3.20;1.98;;;7.50;99.90;;;;;;5057472;28;20044;-68
2022/11/08 10:15:08;;;;;;;9.85;2.50;;;7.40;99.90;;;;;;5072838;28;20036;-69
2022/11/08 10:17:47;;;;;;;1.00;1.00;;;7.50;99.90;;;;;;5072743;28;20674;-69
2022/11/08 10:20:22;;;;;;;5.57;2.60;;;7.20;99.90;;;;;;5073667;28;20098;-68
2022/11/08 10:23:02;;;;;;;3.45;2.58;;;7.20;99.90;;;;;;5072914;28;20465;-68
2022/11/08 10:26:14;;;;;;;2.55;2.35;;;7.90;99.90;;;;;;5073652;28;20024;-68
2022/11/08 10:28:50;;;;;;;7.32;3.03;;;7.70;99.90;;;;;;5038927;28;20523;-69
2022/11/08 10:31:18;;;;;;;1.05;1.05;;;7.80;99.90;;;;;;5058168;28;20091;-69
2022/11/08 10:33:47;;;;;;;2.95;1.83;;;7.90;99.90;;;;;;5050000;28;20476;-69
2022/11/08 10:36:37;;;;;;;1.65;1.55;;;8.10;99.90;;;;;;5056744;28;20576;-67
2022/11/08 10:39:08;;;;;;;2.40;2.20;;;8.00;99.90;;;;;;5056743;28;20033;-68
2022/11/08 10:41:37;;;;;;;2.28;1.90;;;8.50;99.90;;;;;;5071282;28;20052;-68
2022/11/08 10:44:09;;;;;;;5.38;2.95;;;8.70;99.90;;;;;;5063290;28;20028;-70
2022/11/08 10:46:43;;;;;;;2.70;2.50;;;8.60;99.90;;;;;;5056754;28;20040;-67
2022/11/08 10:49:21;;;;;;;0.93;0.93;;;8.60;99.90;;;;;;5070231;28;20509;-67
2022/11/08 10:52:10;;;;;;;2.03;1.90;;;8.30;99.90;;;;;;5071651;28;20467;-72
2022/11/08 10:54:42;;;;;;;2.03;1.65;;;8.60;99.90;;;;;;5060067;28;20143;-67
2022/11/08 10:57:31;;;;;;;3.38;3.10;;;8.70;99.90;;;;;;5069003;28;20142;-67
2022/11/08 11:00:17;;;;;;;1.58;1.48;;;9.10;99.90;;;;;;5071932;28;20060;-67
2022/11/08 11:02:45;;;;;;;3.22;1.77;;;8.80;99.90;;;;;;5071817;28;20044;-68
2022/11/08 11:05:17;;;;;;;3.38;3.10;;;9.20;99.90;;;;;;5072067;28;20024;-68
2022/11/08 11:08:03;;;;;;;1.48;1.35;;;8.70;99.90;;;;;;5060055;28;20376;-68
2022/11/08 11:10:33;;;;;;;6.63;4.35;;;8.70;99.90;;;;;;5051821;28;20395;-69
2022/11/08 11:13:00;;;;;;;3.85;3.55;;;8.80;99.90;;;;;;5055082;28;20029;-70
2022/11/08 11:16:10;;;;;;;3.40;3.15;;;8.90;99.90;;;;;;5071920;28;20041;-69
2022/11/08 11:18:44;;;;;;;2.17;2.08;;;8.90;99.90;;;;;;5068716;28;20036;-69
2022/11/08 11:21:12;;;;;;;5.05;4.60;;;9.10;99.90;;;;;;5054863;28;20049;-68
2022/11/08 11:23:40;;;;;;;5.15;3.10;;;8.70;99.90;;;;;;5069465;28;20108;-68
2022/11/08 11:26:15;;;;;;;5.95;3.35;;;9.20;99.90;;;;;;5071916;28;20040;-69
2022/11/08 11:28:58;;;;;;;1.38;1.27;;;9.10;99.90;;;;;;5063383;28;20025;-69
2022/11/08 11:31:23;;;;;;;3.17;2.83;;;8.90;99.90;;;;;;5059307;28;20032;-69
2022/11/08 11:33:49;;;;;;;8.00;5.17;;;8.50;99.90;;;;;;5071185;28;20511;-70
2022/11/08 11:36:19;;;;;;;2.70;2.50;;;8.80;99.90;;;;;;5071160;28;20044;-67
2022/11/08 11:38:56;;;;;;;2.85;2.63;;;8.90;99.90;;;;;;5053527;28;20108;-68
2022/11/08 11:41:32;;;;;;;1.98;1.85;;;8.80;99.90;;;;;;5052451;28;20511;-69
2022/11/08 11:44:20;;;;;;;3.28;2.83;;;9.00;99.90;;;;;;5058626;28;20028;-69
2022/11/08 11:46:57;;;;;;;;;;;11.10;99.90;;;;;;5071816;28;20060;-69
2022/11/08 11:49:27;;;;;;;2.67;2.47;;;9.50;99.90;;;;;;5071002;28;20279;-70
2022/11/08 11:51:54;;;;;;;3.90;3.03;;;9.10;99.90;;;;;;5069664;28;20112;-69
2022/11/08 11:54:22;;;;;;;;;;;9.10;99.90;;;;;;5050322;28;20059;-69
2022/11/08 11:57:09;;;;;;;3.47;2.55;;;8.80;99.90;;;;;;5049672;28;19963;-70
2022/11/08 11:59:53;;;;;;;21.25;6.20;;;9.80;99.90;;;;;;5049294;28;20036;-68
2022/11/08 12:02:36;;;;;;;4.20;3.13;;;9.00;99.90;;;;;;5063678;28;20052;-69
2022/11/08 12:05:17;;;;;;;3.13;2.90;;;9.40;99.90;;;;;;5071583;28;20491;-68
2022/11/08 12:07:51;;;;;;;2.35;2.17;;;9.60;99.90;;;;;;5058438;28;20324;-69
2022/11/08 12:10:29;;;;;;;10.02;3.92;;;9.40;99.90;;;;;;5050409;28;20068;-68
2022/11/08 12:13:16;;;;;;;4.07;3.63;;;9.20;99.90;;;;;;5053296;28;20029;-67
2022/11/08 12:16:00;;;;;;;4.97;4.47;;;9.30;99.90;;;;;;5066495;28;20107;-67
2022/11/08 12:18:31;;;;;;;5.65;4.93;;;9.50;99.90;;;;;;5064508;28;20028;-69
2022/11/08 12:21:11;;;;;;;4.05;3.30;;;9.40;99.90;;;;;;5052166;28;20040;-68
2022/11/08 12:24:14;;;;;;;4.88;4.43;;;10.10;99.90;;;;;;5051838;28;20345;-67
2022/11/08 12:27:03;;;;;;;3.50;2.65;;;9.40;99.90;;;;;;5054497;28;20029;-68
2022/11/08 12:29:52;;;;;;;3.92;2.95;;;9.00;99.90;;;;;;5051255;28;20017;-68
2022/11/08 12:32:46;;;;;;;2.22;2.10;;;9.00;99.90;;;;;;5061866;28;20063;-67
2022/11/08 12:35:42;;;;;;;5.13;3.15;;;9.50;99.90;;;;;;5070416;28;20501;-68
2022/11/08 12:38:28;;;;;;;2.55;2.35;;;9.10;99.90;;;;;;5064780;28;20562;-68
2022/11/08 12:41:33;;;;;;;3.28;2.97;;;9.10;99.90;;;;;;5052433;28;20476;-69
2022/11/08 12:44:23;;;;;;;1.38;1.35;;;9.10;99.90;;;;;;5050586;28;20504;-68
2022/11/08 12:47:22;;;;;;;2.72;2.30;;;9.10;99.90;;;;;;5069984;28;20029;-67
2022/11/08 12:50:12;;;;;;;1.60;1.50;;;9.20;99.90;;;;;;5070017;28;20070;-68
2022/11/08 12:53:05;;;;;;;3.50;2.63;;;9.20;99.90;;;;;;5068391;28;20063;-68
2022/11/08 12:55:40;;;;;;;3.47;2.47;;;8.90;99.90;;;;;;5052351;28;20024;-68
2022/11/08 12:58:38;;;;;;;4.47;3.05;;;8.80;99.90;;;;;;5062486;28;20409;-67
2022/11/08 13:01:09;;;;;;;1.38;1.27;;;9.50;99.90;;;;;;5062495;28;20044;-68
2022/11/08 13:03:41;;;;;;;2.33;2.20;;;9.20;99.90;;;;;;5050085;28;20037;-69
2022/11/08 13:06:13;;;;;;;2.75;2.17;;;8.90;99.90;;;;;;5049311;28;20029;-68
2022/11/08 13:09:11;;;;;;;4.63;3.47;;;9.20;99.90;;;;;;5054793;28;20048;-68
2022/11/08 13:11:56;;;;;;;2.60;2.42;;;9.30;99.90;;;;;;5069970;28;20052;-68
2022/11/08 13:14:23;;;;;;;2.08;1.70;;;9.40;99.90;;;;;;5069905;28;20422;-66
2022/11/08 13:17:07;;;;;;;3.22;3.03;;;9.30;99.90;;;;;;5050279;28;20033;-68
2022/11/08 13:19:48;;;;;;;1.70;1.60;;;9.20;99.90;;;;;;5050115;28;20480;-67
2022/11/08 13:22:30;;;;;;;0.95;0.95;;;9.20;99.90;;;;;;5047711;28;20033;-67
2022/11/08 13:24:59;;;;;;;3.83;2.67;;;9.40;99.90;;;;;;5063757;28;20024;-67
2022/11/08 13:27:35;;;;;;;1.95;1.85;;;9.20;99.90;;;;;;5069995;28;20032;-68
2022/11/08 13:30:24;;;;;;;5.03;3.72;;;9.40;99.90;;;;;;5067982;28;20020;-68
2022/11/08 13:32:49;;;;;;;5.05;2.88;;;9.10;99.90;;;;;;5061420;28;20028;-68
2022/11/08 13:35:36;;;;;;;5.97;4.37;;;9.30;99.90;;;;;;5049385;28;20040;-69
2022/11/08 13:38:21;;;;;;;2.00;1.77;;;9.60;99.90;;;;;;5051629;28;20412;-69
2022/11/08 13:40:46;;;;;;;4.03;3.45;;;9.20;99.90;;;;;;5072580;28;20065;-64
2022/11/08 13:43:29;;;;;;;1.63;1.53;;;9.20;99.90;;;;;;5073095;28;20020;-64
2022/11/08 13:46:21;;;;;;;2.97;2.65;;;9.20;99.90;;;;;;5064927;28;20441;-65
2022/11/08 13:49:04;;;;;;;3.33;3.05;;;8.80;99.90;;;;;;5053578;28;20033;-66
2022/11/08 13:51:34;;;;;;;4.43;3.55;;;9.20;99.90;;;;;;5053372;28;20037;-64
2022/11/08 13:54:01;;;;;;;2.45;2.25;;;9.20;99.90;;;;;;5055527;28;20510;-66
2022/11/08 13:56:44;;;;;;;2.33;2.15;;;9.10;99.90;;;;;;5071641;28;20090;-65
2022/11/08 13:59:29;;;;;;;1.20;1.20;;;9.20;99.90;;;;;;5073295;28;20519;-65
2022/11/08 14:01:59;;;;;;;8.05;5.65;;;9.00;99.90;;;;;;5070583;28;20055;-65
2022/11/08 14:04:40;;;;;;;10.10;5.38;;;9.10;99.90;;;;;;5069822;28;20103;-66
2022/11/08 14:07:25;;;;;;;4.03;3.63;;;8.90;99.90;;;;;;5071144;28;20060;-65
2022/11/08 14:10:25;;;;;;;7.35;3.13;;;9.00;99.90;;;;;;5063218;28;20041;-65
2022/11/08 14:13:08;;;;;;;8.27;4.45;;;8.90;99.90;;;;;;5052646;28;20025;-65
2022/11/08 14:15:49;;;;;;;3.58;3.28;;;8.90;99.90;;;;;;5053766;28;20487;-65
2022/11/08 14:18:32;;;;;;;3.30;2.97;;;8.70;99.90;;;;;;5072722;28;20434;-66
2022/11/08 14:20:58;;;;;;;5.07;4.53;;;8.80;99.90;;;;;;5072735;28;20028;-65
2022/11/08 14:23:37;;;;;;;3.40;2.45;;;8.80;99.90;;;;;;5073051;28;20032;-65
2022/11/08 14:26:13;;;;;;;4.47;4.18;;;8.80;99.90;;;;;;5056833;28;20056;-66
2022/11/08 14:28:42;;;;;;;4.47;3.78;;;8.70;99.90;;;;;;5052581;28;20070;-65
2022/11/08 14:31:29;;;;;;;1.67;1.60;;;8.70;99.90;;;;;;5056281;28;20082;-65
2022/11/08 14:33:57;;;;;;;3.80;3.53;;;8.70;99.90;;;;;;5054311;28;20025;-66
2022/11/08 14:36:25;;;;;;;1.45;1.35;;;8.90;99.90;;;;;;5072536;28;20083;-67